Caribou, ME

8:54 AM EST on February 07, 2016 (GMT -0500)
Caribou Municipal | | Change Station
CLOSE
Current Station
Airport
Location: Caribou,
Elevation: 623 ft
Nearby Weather Stations

Elev 623 ft 46.87 °N, 68.02 °W | Updated 9 minutes ago

Scattered Clouds
Scattered Clouds
21 °F
Feels Like 5 °F
N
21
Wind Variable Wind from NW
Gusts 32 mph

Today
High -- | Low -- °F
--% Chance of Precip.
Yesterday
High -- | Low -- °F
Precip. -- in
Pressure 29.98 in
Visibility 4.0 miles
Clouds Scattered Clouds 3100 ft
Windchill 5 °F
Dew Point 4 °F
Humidity 48%
Rainfall 0.01 in
Snow Depth Not available.
6:49 AM 4:43 PM
Waning Crescent, 1% visible
SPECI KCAR 071345Z AUTO 31018G28KT 4SM UP SCT031 M06/M16 A2998 RMK AO2 PK WND 31028/1339 UPB1256E04B18SNB05E18 PRESRR P0000 T10611156
Pressure 29.98 in
Visibility 4.0 miles
Clouds Scattered Clouds 3100 ft
Windchill 5 °F
Dew Point 4 °F
Humidity 48%
Rainfall 0.01 in
Snow Depth Not available.
6:49 AM 4:43 PM
Waning Crescent, 1% visible
SPECI KCAR 071345Z AUTO 31018G28KT 4SM UP SCT031 M06/M16 A2998 RMK AO2 PK WND 31028/1339 UPB1256E04B18SNB05E18 PRESRR P0000 T10611156

10-Day Weather Forecast

Almanac

Astronomy

Feb. 07, 2016 Rise Set
Actual Time
Civil Twilight
Nautical Twilight
Astronomical Twilight
Moon
Length of Visible Light
Length of Day
Tomorrow will be .
, % of the Moon is Illuminated

Today's Extremes

State Highs State Lows

Community

WunderPhotos

Upload Photos

1,891,190 photos uploaded!

WunderBlog® & News

Nearby

Air Quality

  Air Quality AQ Index Pollutant
Not available.

Snow Depth

Station Depth Elevation

Earthquake Activity

City Distance Mag. Time & Date
Minimum magnitude displayed is 2.5.

Coastal Water Temperatures

Place Temperature

Stations

Nearby Weather Stations

Station Location Temp. Windchill Dew Point Humidity Wind Precip. Elev Updated Type
                   

Watches & Warnings

There are currently no watches in effect.